Time;durP1;ratioP1;P1;durP2;ratioP2;P2;SDS_P1;SDS_P2;PMS_P1;PMS_P2;Temp;Humidity;BMP_temperature;BMP_pressure;BME280_temperature;BME280_humidity;BME280_pressure;Samples;Min_cycle;Max_cycle;Signal;HPM_P1;HPM_P2
2022/04/29 00:02:08;;;;;;;8.70;6.30;;;10.70;75.70;;;;;;5013211;28;20189;-76
2022/04/29 00:04:35;;;;;;;15.13;8.50;;;10.60;75.80;;;;;;5005506;28;20190;-76
2022/04/29 00:07:02;;;;;;;12.23;7.33;;;10.60;75.90;;;;;;5018842;28;20925;-77
2022/04/29 00:09:28;;;;;;;10.67;7.70;;;10.40;77.00;;;;;;5016202;28;21007;-75
2022/04/29 00:11:55;;;;;;;15.63;8.00;;;10.40;77.10;;;;;;5015254;28;20452;-75
2022/04/29 00:14:23;;;;;;;13.60;6.90;;;10.50;77.40;;;;;;5008351;28;21074;-76
2022/04/29 00:16:50;;;;;;;13.93;8.40;;;10.50;77.10;;;;;;5008146;28;20194;-76
2022/04/29 00:19:16;;;;;;;11.73;7.00;;;10.50;77.00;;;;;;5009790;28;20951;-76
2022/04/29 00:21:42;;;;;;;10.90;7.70;;;10.50;76.80;;;;;;5009043;28;20777;-76
2022/04/29 00:24:11;;;;;;;9.87;7.20;;;10.40;77.40;;;;;;5009200;28;20516;-75
2022/04/29 00:26:38;;;;;;;14.50;8.33;;;10.40;77.60;;;;;;5020161;28;20436;-76
2022/04/29 00:29:04;;;;;;;13.50;7.33;;;10.30;77.70;;;;;;5009943;28;20959;-76
2022/04/29 00:31:31;;;;;;;9.90;7.40;;;10.30;77.80;;;;;;5014648;28;20915;-77
2022/04/29 00:33:57;;;;;;;12.20;7.53;;;10.30;78.00;;;;;;5016179;28;20472;-76
2022/04/29 00:36:23;;;;;;;11.77;7.50;;;10.20;78.30;;;;;;5011729;28;20476;-74
2022/04/29 00:38:49;;;;;;;10.63;7.43;;;10.20;78.10;;;;;;5010256;28;20448;-74
2022/04/29 00:41:19;;;;;;;13.27;7.10;;;10.10;77.30;;;;;;5017574;28;20706;-75
2022/04/29 00:43:45;;;;;;;12.03;6.93;;;10.10;77.70;;;;;;5011827;28;20464;-75
2022/04/29 00:46:11;;;;;;;11.13;7.33;;;10.10;77.80;;;;;;5019478;28;20482;-73
2022/04/29 00:48:37;;;;;;;10.03;7.13;;;10.10;77.80;;;;;;5008585;28;20461;-75
2022/04/29 00:51:04;;;;;;;10.37;6.87;;;10.10;78.00;;;;;;5016993;28;20431;-75
2022/04/29 00:53:30;;;;;;;11.13;7.47;;;10.10;78.10;;;;;;5015083;28;20475;-76
2022/04/29 00:55:57;;;;;;;13.23;7.90;;;10.10;78.40;;;;;;5021581;28;20459;-76
2022/04/29 00:58:42;;;;;;;10.63;7.93;;;10.10;78.60;;;;;;5019235;28;20481;-75
2022/04/29 01:01:08;;;;;;;9.77;7.40;;;10.10;78.70;;;;;;5007373;28;20941;-76
2022/04/29 01:03:37;;;;;;;10.10;7.63;;;10.10;78.40;;;;;;5019971;28;20424;-75
2022/04/29 01:06:03;;;;;;;9.87;7.03;;;10.00;78.10;;;;;;5023170;28;20425;-76
2022/04/29 01:08:29;;;;;;;8.87;6.77;;;10.00;78.00;;;;;;5020843;28;20547;-76
2022/04/29 01:10:56;;;;;;;12.80;7.87;;;10.00;78.40;;;;;;5027091;28;20516;-75
2022/04/29 01:13:22;;;;;;;12.93;7.83;;;10.00;78.40;;;;;;5022232;28;20287;-75
2022/04/29 01:15:50;;;;;;;13.00;7.50;;;10.00;78.70;;;;;;5026492;28;20420;-75
2022/04/29 01:18:17;;;;;;;14.63;8.40;;;10.00;79.50;;;;;;5024724;28;20436;-75
2022/04/29 01:20:43;;;;;;;14.27;7.80;;;10.00;79.50;;;;;;5013633;28;20417;-75
2022/04/29 01:23:13;;;;;;;13.13;8.53;;;9.90;79.70;;;;;;5009479;28;20433;-75
2022/04/29 01:25:39;;;;;;;12.40;8.10;;;9.90;79.60;;;;;;5010139;28;20429;-75
2022/04/29 01:28:05;;;;;;;12.30;8.50;;;9.90;79.90;;;;;;5013128;28;20448;-75
2022/04/29 01:30:31;;;;;;;13.10;7.83;;;9.90;79.70;;;;;;5016588;28;20440;-75
2022/04/29 01:32:59;;;;;;;11.33;7.27;;;9.80;79.90;;;;;;5016895;28;20466;-76
2022/04/29 01:35:25;;;;;;;10.57;7.37;;;9.80;80.30;;;;;;5019013;28;20421;-76
2022/04/29 01:37:51;;;;;;;14.80;8.47;;;9.70;80.20;;;;;;5017729;28;20835;-76
2022/04/29 01:40:17;;;;;;;13.43;8.30;;;9.70;80.20;;;;;;5016139;28;20558;-75
2022/04/29 01:42:44;;;;;;;10.87;8.00;;;9.70;80.60;;;;;;5018337;28;20462;-75
2022/04/29 01:45:11;;;;;;;12.40;8.37;;;9.60;80.60;;;;;;5011154;28;20947;-74
2022/04/29 01:47:37;;;;;;;10.87;8.10;;;9.60;80.80;;;;;;5014638;28;20431;-76
2022/04/29 01:50:03;;;;;;;13.70;8.83;;;9.50;81.20;;;;;;5019567;28;20436;-76
2022/04/29 01:52:30;;;;;;;11.10;7.17;;;9.50;81.40;;;;;;5012358;28;20217;-74
2022/04/29 01:54:55;;;;;;;13.47;7.37;;;9.50;81.70;;;;;;5013775;28;20425;-76
2022/04/29 01:57:21;;;;;;;11.30;8.23;;;9.50;81.70;;;;;;5020525;28;20417;-75
2022/04/29 01:59:47;;;;;;;11.40;7.90;;;9.60;80.80;;;;;;5033970;28;20201;-75
2022/04/29 02:02:13;;;;;;;15.00;8.50;;;9.50;80.00;;;;;;5028071;28;20583;-76
2022/04/29 02:04:38;;;;;;;11.03;7.73;;;9.50;79.70;;;;;;5016224;28;20186;-74
2022/04/29 02:07:06;;;;;;;12.17;7.63;;;9.50;79.90;;;;;;5020067;28;20204;-75
2022/04/29 02:09:32;;;;;;;14.13;8.40;;;9.40;80.30;;;;;;5018028;28;20570;-76
2022/04/29 02:12:04;;;;;;;11.33;8.03;;;9.40;80.60;;;;;;5017950;28;20435;-75
2022/04/29 02:14:39;;;;;;;13.03;8.10;;;9.40;80.90;;;;;;5012200;28;20471;-76
2022/04/29 02:17:06;;;;;;;13.13;8.57;;;9.40;80.80;;;;;;5017901;28;20453;-75
2022/04/29 02:19:33;;;;;;;12.87;8.20;;;9.40;80.90;;;;;;5012086;28;21017;-76
2022/04/29 02:22:00;;;;;;;13.00;8.83;;;9.40;81.40;;;;;;5012125;28;20456;-76
2022/04/29 02:24:26;;;;;;;13.83;9.93;;;9.40;81.20;;;;;;5011940;28;20431;-75
2022/04/29 02:26:53;;;;;;;10.00;7.70;;;9.30;80.90;;;;;;5014660;28;20452;-76
2022/04/29 02:29:19;;;;;;;14.10;8.40;;;9.30;81.20;;;;;;5017062;28;21049;-76
2022/04/29 02:31:46;;;;;;;11.77;8.50;;;9.30;80.90;;;;;;5016410;28;20843;-75
2022/04/29 02:34:11;;;;;;;11.37;8.80;;;9.20;80.80;;;;;;5019269;28;20468;-75
2022/04/29 02:36:37;;;;;;;14.20;9.13;;;9.20;80.90;;;;;;5017396;28;20933;-75
2022/04/29 02:39:04;;;;;;;10.60;7.97;;;9.10;81.20;;;;;;5012929;28;20985;-75
2022/04/29 02:41:30;;;;;;;12.33;8.33;;;9.10;81.90;;;;;;5019154;28;20508;-76
2022/04/29 02:43:56;;;;;;;11.80;7.83;;;9.10;81.50;;;;;;5015050;28;20563;-76
2022/04/29 02:46:22;;;;;;;15.43;9.07;;;9.10;81.70;;;;;;5020736;28;20420;-76
2022/04/29 02:48:48;;;;;;;18.17;9.40;;;9.10;81.90;;;;;;5018009;28;20206;-76
2022/04/29 02:51:15;;;;;;;14.30;9.27;;;9.00;82.10;;;;;;5016910;28;20421;-77
2022/04/29 02:53:42;;;;;;;16.23;9.60;;;8.90;82.80;;;;;;5023225;28;20465;-75
2022/04/29 02:56:08;;;;;;;13.77;9.47;;;8.90;83.30;;;;;;5025170;28;20417;-75
2022/04/29 02:58:34;;;;;;;11.03;8.10;;;8.90;83.40;;;;;;5028616;28;20487;-74
2022/04/29 03:01:00;;;;;;;13.13;9.23;;;8.80;83.40;;;;;;5033064;28;20511;-76
2022/04/29 03:03:27;;;;;;;13.10;8.03;;;8.90;83.70;;;;;;5024308;28;20190;-77
2022/04/29 03:05:53;;;;;;;12.10;8.17;;;8.80;83.70;;;;;;5022819;28;20435;-73
2022/04/29 03:08:19;;;;;;;13.83;9.17;;;8.80;83.60;;;;;;5024573;28;20927;-75
2022/04/29 03:10:46;;;;;;;13.00;8.90;;;8.80;83.10;;;;;;5012356;28;20343;-77
2022/04/29 03:13:13;;;;;;;12.37;8.23;;;8.80;82.80;;;;;;5012703;28;20297;-75
2022/04/29 03:15:39;;;;;;;13.00;8.37;;;8.80;82.40;;;;;;5009327;28;20691;-76
2022/04/29 03:18:23;;;;;;;13.90;8.70;;;8.80;82.40;;;;;;5012708;28;20484;-76
2022/04/29 03:20:58;;;;;;;12.80;8.63;;;8.80;82.40;;;;;;5013022;28;20182;-77
2022/04/29 03:23:24;;;;;;;14.10;9.33;;;8.80;82.40;;;;;;5015696;28;20850;-75
2022/04/29 03:25:50;;;;;;;14.37;8.60;;;8.80;82.40;;;;;;5013254;28;20436;-75
2022/04/29 03:28:17;;;;;;;14.23;8.90;;;8.70;82.70;;;;;;5011367;28;20459;-76
2022/04/29 03:30:43;;;;;;;12.97;9.17;;;8.80;82.80;;;;;;5011998;28;20428;-73
2022/04/29 03:33:10;;;;;;;16.27;9.07;;;8.80;82.80;;;;;;5012105;28;20473;-74
2022/04/29 03:35:40;;;;;;;13.50;8.53;;;8.80;83.40;;;;;;5012482;28;20453;-76
2022/04/29 03:38:06;;;;;;;16.23;9.20;;;8.80;83.40;;;;;;5013195;28;20444;-75
2022/04/29 03:40:32;;;;;;;16.23;9.70;;;8.80;82.80;;;;;;5020521;28;20428;-77
2022/04/29 03:42:58;;;;;;;16.40;8.60;;;8.70;83.40;;;;;;5018343;28;20687;-76
2022/04/29 03:45:26;;;;;;;17.90;10.17;;;8.80;83.80;;;;;;5028609;28;20440;-72
2022/04/29 03:47:54;;;;;;;13.50;9.67;;;8.70;84.00;;;;;;5028525;28;20180;-77
2022/04/29 03:50:25;;;;;;;15.43;9.40;;;8.70;84.30;;;;;;5034273;28;20453;-75
2022/04/29 03:52:54;;;;;;;14.37;8.83;;;8.70;84.60;;;;;;5016358;28;20562;-74
2022/04/29 03:55:26;;;;;;;14.63;9.30;;;8.70;84.30;;;;;;5015574;28;20424;-72
2022/04/29 03:57:56;;;;;;;15.20;9.67;;;8.60;84.40;;;;;;5013607;28;20518;-74
2022/04/29 04:00:23;;;;;;;16.80;9.70;;;8.50;85.00;;;;;;5012808;28;20819;-73
2022/04/29 04:02:50;;;;;;;16.37;10.50;;;8.50;85.00;;;;;;5015620;28;20429;-74
2022/04/29 04:05:17;;;;;;;14.73;10.20;;;8.50;84.90;;;;;;5012342;28;20417;-74
2022/04/29 04:07:46;;;;;;;16.83;10.10;;;8.50;85.30;;;;;;5017114;28;20445;-74
2022/04/29 04:10:13;;;;;;;15.20;9.50;;;8.50;85.50;;;;;;5013524;28;20412;-76
2022/04/29 04:12:50;;;;;;;14.17;9.90;;;8.40;85.50;;;;;;5012389;28;20427;-75
2022/04/29 04:15:18;;;;;;;13.17;9.70;;;8.40;85.30;;;;;;5010418;28;20523;-76
2022/04/29 04:17:44;;;;;;;16.30;10.37;;;8.50;85.50;;;;;;5024723;28;20434;-75
2022/04/29 04:20:12;;;;;;;12.90;8.70;;;8.50;85.30;;;;;;5019126;28;20424;-74
2022/04/29 04:22:38;;;;;;;17.60;10.27;;;8.50;85.20;;;;;;5014339;28;20521;-75
2022/04/29 04:25:07;;;;;;;15.40;9.13;;;8.50;84.90;;;;;;5022559;28;20483;-74
2022/04/29 04:27:32;;;;;;;14.70;10.20;;;8.50;84.90;;;;;;5023378;28;20185;-74
2022/04/29 04:30:00;;;;;;;13.83;9.30;;;8.50;85.00;;;;;;5026715;28;20491;-75
2022/04/29 04:32:26;;;;;;;14.67;9.70;;;8.50;85.30;;;;;;5021517;28;20429;-75
2022/04/29 04:34:57;;;;;;;18.10;11.63;;;8.50;85.50;;;;;;5024501;28;20468;-74
2022/04/29 04:37:28;;;;;;;19.20;10.13;;;8.50;85.60;;;;;;5018000;28;20443;-75
2022/04/29 04:39:54;;;;;;;15.70;11.10;;;8.60;85.50;;;;;;5013982;28;20436;-74
2022/04/29 04:42:21;;;;;;;14.80;9.50;;;8.60;84.90;;;;;;5006312;28;20425;-75
2022/04/29 04:44:48;;;;;;;17.67;10.83;;;8.70;84.90;;;;;;5012364;28;20904;-76
2022/04/29 04:47:14;;;;;;;15.57;11.00;;;8.70;84.60;;;;;;5024647;28;20442;-75
2022/04/29 04:49:40;;;;;;;15.43;10.00;;;8.70;84.70;;;;;;5015840;28;20540;-74
2022/04/29 04:52:06;;;;;;;19.20;11.03;;;8.70;85.00;;;;;;5004992;28;21007;-74
2022/04/29 04:54:32;;;;;;;17.37;10.90;;;8.70;84.10;;;;;;5021931;28;20468;-74
2022/04/29 04:56:58;;;;;;;15.33;10.43;;;8.70;84.10;;;;;;5013937;28;21036;-75
2022/04/29 04:59:24;;;;;;;19.20;11.83;;;8.80;84.30;;;;;;5010381;28;20955;-75
2022/04/29 05:01:50;;;;;;;15.97;11.27;;;8.80;84.00;;;;;;5013799;28;20454;-75
2022/04/29 05:04:16;;;;;;;16.97;11.13;;;8.80;84.00;;;;;;5015330;28;20508;-76
2022/04/29 05:06:42;;;;;;;16.13;11.53;;;8.90;84.00;;;;;;5014083;28;20460;-75
2022/04/29 05:09:08;;;;;;;15.87;10.77;;;9.10;83.40;;;;;;5011837;28;20601;-74
2022/04/29 05:11:35;;;;;;;18.00;12.00;;;9.20;83.10;;;;;;5018560;28;20421;-73
2022/04/29 05:14:00;;;;;;;20.87;12.40;;;9.30;82.80;;;;;;5029106;28;20871;-75
2022/04/29 05:16:27;;;;;;;16.63;11.33;;;9.50;82.40;;;;;;5019758;28;20428;-75
2022/04/29 05:18:52;;;;;;;21.30;12.50;;;9.50;82.10;;;;;;5024401;28;20800;-74
2022/04/29 05:21:19;;;;;;;23.83;13.27;;;9.60;81.50;;;;;;5030080;28;20424;-76
2022/04/29 05:23:44;;;;;;;20.23;12.10;;;9.60;80.50;;;;;;5021493;28;20190;-76
2022/04/29 05:26:10;;;;;;;18.87;12.23;;;9.70;80.50;;;;;;5025142;28;20445;-76
2022/04/29 05:28:36;;;;;;;15.00;10.70;;;9.70;79.70;;;;;;5022368;28;20205;-74
2022/04/29 05:31:03;;;;;;;14.70;9.77;;;9.70;79.60;;;;;;5022371;28;20857;-74
2022/04/29 05:33:33;;;;;;;18.50;12.73;;;9.70;79.90;;;;;;5021696;28;20467;-76
2022/04/29 05:35:59;;;;;;;18.33;12.23;;;9.80;79.90;;;;;;5018827;28;20421;-74
2022/04/29 05:42:14;;;;;;;17.37;11.07;;;9.70;79.90;;;;;;5025374;28;20935;-76
2022/04/29 05:43:57;;;;;;;20.03;11.97;;;10.00;79.30;;;;;;5017827;28;20427;-75
2022/04/29 05:46:23;;;;;;;17.40;11.20;;;10.00;79.00;;;;;;5013889;28;20453;-75
2022/04/29 05:48:49;;;;;;;18.80;11.77;;;10.10;78.60;;;;;;5013783;28;22150;-76
2022/04/29 05:51:14;;;;;;;23.03;12.13;;;10.30;78.00;;;;;;5014527;28;20193;-75
2022/04/29 05:53:40;;;;;;;16.43;11.63;;;10.30;77.80;;;;;;5005886;28;20220;-76
2022/04/29 05:56:06;;;;;;;17.83;11.90;;;10.30;77.70;;;;;;5012805;28;20243;-78
2022/04/29 05:58:31;;;;;;;17.77;10.77;;;10.40;77.70;;;;;;5020351;28;20209;-76
2022/04/29 06:00:58;;;;;;;20.80;11.73;;;10.50;77.60;;;;;;5013118;28;20182;-75
2022/04/29 06:03:24;;;;;;;21.77;11.40;;;10.60;76.80;;;;;;5012108;28;20273;-75
2022/04/29 06:05:50;;;;;;;20.43;12.70;;;10.60;76.20;;;;;;5012587;28;20908;-75
2022/04/29 06:08:16;;;;;;;36.90;14.70;;;10.60;76.70;;;;;;5013626;28;20471;-75
2022/04/29 06:10:42;;;;;;;26.27;14.33;;;10.70;77.40;;;;;;5020220;28;20639;-76
2022/04/29 06:13:08;;;;;;;26.77;15.43;;;10.80;78.10;;;;;;5011832;28;20264;-76
2022/04/29 06:15:35;;;;;;;27.83;14.80;;;10.90;78.10;;;;;;5009492;28;20190;-76
2022/04/29 06:18:02;;;;;;;24.00;14.10;;;11.00;77.00;;;;;;5018845;28;20420;-76
2022/04/29 06:20:29;;;;;;;26.63;15.27;;;11.10;75.70;;;;;;5018262;28;20420;-74
2022/04/29 06:22:55;;;;;;;26.23;13.67;;;11.10;76.10;;;;;;5020875;28;20428;-76
2022/04/29 06:25:22;;;;;;;38.90;14.80;;;11.20;76.20;;;;;;5019758;28;20475;-76
2022/04/29 06:27:47;;;;;;;26.67;14.67;;;11.50;76.20;;;;;;5010379;28;20446;-75
2022/04/29 06:30:14;;;;;;;27.03;15.10;;;11.50;74.50;;;;;;5018599;28;20429;-76
2022/04/29 06:32:39;;;;;;;22.70;14.13;;;11.60;75.40;;;;;;5025128;28;20290;-74
2022/04/29 06:35:06;;;;;;;30.10;15.87;;;11.70;75.20;;;;;;5019266;28;20433;-74
2022/04/29 06:37:33;;;;;;;22.47;14.90;;;11.80;75.20;;;;;;5016081;28;20616;-74
2022/04/29 06:39:58;;;;;;;21.83;14.70;;;12.10;74.30;;;;;;5019273;28;20472;-76
2022/04/29 06:42:24;;;;;;;24.13;15.93;;;12.20;73.50;;;;;;5017822;28;20456;-76
2022/04/29 06:44:50;;;;;;;29.00;14.70;;;12.20;72.70;;;;;;5012592;28;20330;-75
2022/04/29 06:47:16;;;;;;;26.57;15.80;;;12.20;73.00;;;;;;5019699;28;20253;-77
2022/04/29 06:49:42;;;;;;;24.90;16.00;;;12.30;72.40;;;;;;5015487;28;20218;-76
2022/04/29 06:52:08;;;;;;;27.47;15.10;;;12.40;72.30;;;;;;5018397;28;20430;-74
2022/04/29 06:54:34;;;;;;;23.13;15.47;;;12.40;71.80;;;;;;5014221;28;20487;-74
2022/04/29 06:57:00;;;;;;;27.93;15.40;;;12.60;71.80;;;;;;5022646;28;20244;-76
2022/04/29 06:59:26;;;;;;;23.77;14.90;;;12.70;71.70;;;;;;5022805;28;20284;-76
2022/04/29 07:01:53;;;;;;;25.73;16.60;;;12.80;71.60;;;;;;5016684;28;20257;-76
2022/04/29 07:04:18;;;;;;;35.27;16.53;;;12.90;71.30;;;;;;5019891;28;20491;-76
2022/04/29 07:06:44;;;;;;;28.07;16.17;;;12.90;70.20;;;;;;5019648;28;20961;-76
2022/04/29 07:09:10;;;;;;;32.90;16.53;;;13.00;70.20;;;;;;5015428;28;20230;-76
2022/04/29 07:11:35;;;;;;;29.30;16.27;;;13.00;69.80;;;;;;5019779;28;20189;-76
2022/04/29 07:14:02;;;;;;;27.50;16.57;;;13.00;70.20;;;;;;5014842;28;20206;-75
2022/04/29 07:16:30;;;;;;;27.23;15.03;;;13.20;69.40;;;;;;5014091;28;20181;-75
2022/04/29 07:18:57;;;;;;;24.70;14.47;;;13.20;68.90;;;;;;5009876;28;20436;-76
2022/04/29 07:21:23;;;;;;;26.37;14.30;;;13.30;68.30;;;;;;5014061;28;20511;-77
2022/04/29 07:23:49;;;;;;;26.30;15.53;;;13.30;67.60;;;;;;5020453;28;20518;-74
2022/04/29 07:26:15;;;;;;;29.90;14.50;;;13.20;67.50;;;;;;5014482;28;20425;-75
2022/04/29 07:28:41;;;;;;;21.00;14.57;;;13.20;67.60;;;;;;5014613;28;20217;-76
2022/04/29 07:31:07;;;;;;;24.07;13.53;;;13.20;67.20;;;;;;5016887;28;20425;-76
2022/04/29 07:33:33;;;;;;;23.00;13.83;;;13.20;67.50;;;;;;5014623;28;20495;-74
2022/04/29 07:41:45;;;;;;;24.40;13.90;;;13.70;66.90;;;;;;5012073;28;20934;-75
2022/04/29 07:44:11;;;;;;;28.90;13.53;;;13.70;66.30;;;;;;5020172;28;20518;-76
2022/04/29 07:46:38;;;;;;;22.53;14.27;;;13.80;66.30;;;;;;5015082;28;20447;-75
2022/04/29 07:49:04;;;;;;;22.97;13.93;;;13.90;66.10;;;;;;5023354;28;20460;-76
2022/04/29 07:51:30;;;;;;;19.33;12.77;;;14.00;65.70;;;;;;5020262;28;20430;-75
2022/04/29 07:53:57;;;;;;;24.37;14.10;;;14.10;65.00;;;;;;5012869;28;20502;-76
2022/04/29 07:56:22;;;;;;;20.90;12.70;;;14.10;65.10;;;;;;5018907;28;20265;-75
2022/04/29 07:58:48;;;;;;;23.60;14.03;;;14.20;64.50;;;;;;5012149;28;20580;-74
2022/04/29 08:01:15;;;;;;;19.97;13.53;;;14.30;64.70;;;;;;5014264;28;20190;-75
2022/04/29 08:03:44;;;;;;;26.10;14.27;;;14.30;64.50;;;;;;5012999;28;20185;-75
2022/04/29 08:06:10;;;;;;;23.20;13.43;;;14.30;64.20;;;;;;5015330;28;20443;-76
2022/04/29 08:08:39;;;;;;;34.03;15.97;;;14.20;64.20;;;;;;5015549;28;20467;-74
2022/04/29 08:11:05;;;;;;;22.23;13.30;;;14.30;64.10;;;;;;5019396;28;20269;-75
2022/04/29 08:13:32;;;;;;;23.43;15.13;;;14.30;63.80;;;;;;5010828;28;20848;-76
2022/04/29 08:16:00;;;;;;;25.10;14.37;;;14.30;63.50;;;;;;5004271;28;20448;-75
2022/04/29 08:18:26;;;;;;;22.60;13.77;;;14.30;63.40;;;;;;5014058;28;20459;-76
2022/04/29 08:20:53;;;;;;;26.57;14.53;;;14.20;63.40;;;;;;5018267;28;20467;-75
2022/04/29 08:23:19;;;;;;;23.30;14.30;;;14.20;63.70;;;;;;5012549;28;20190;-75
2022/04/29 08:25:45;;;;;;;25.30;14.40;;;14.20;63.70;;;;;;5010424;28;20425;-76
2022/04/29 08:28:11;;;;;;;21.70;13.73;;;14.30;63.40;;;;;;5017105;28;20451;-76
2022/04/29 08:30:37;;;;;;;27.27;14.57;;;14.40;63.20;;;;;;5015029;28;20516;-76
2022/04/29 08:33:03;;;;;;;21.60;14.43;;;14.50;62.50;;;;;;5014413;28;20500;-75
2022/04/29 08:35:30;;;;;;;20.40;13.07;;;14.60;62.00;;;;;;5016189;28;20459;-75
2022/04/29 08:37:57;;;;;;;25.87;13.37;;;14.70;61.30;;;;;;5012949;28;20434;-75
2022/04/29 08:40:24;;;;;;;18.80;12.43;;;14.80;60.40;;;;;;5015872;28;20429;-75
2022/04/29 08:42:50;;;;;;;21.70;13.20;;;15.00;59.70;;;;;;5017125;28;20507;-75
2022/04/29 08:45:17;;;;;;;21.60;12.90;;;15.00;59.10;;;;;;5020843;28;20428;-75
2022/04/29 08:47:45;;;;;;;21.33;12.30;;;15.10;58.50;;;;;;5020286;28;20612;-75
2022/04/29 08:50:14;;;;;;;18.33;11.67;;;15.20;57.70;;;;;;5020824;28;20471;-76
2022/04/29 08:52:39;;;;;;;20.13;11.60;;;15.30;57.70;;;;;;5016888;28;20438;-75
2022/04/29 09:00:44;;;;;;;17.17;11.10;;;15.80;56.10;;;;;;5018631;28;20840;-76
2022/04/29 09:03:20;;;;;;;20.37;11.70;;;15.80;56.90;;;;;;5020295;28;20985;-76
2022/04/29 09:05:47;;;;;;;20.77;11.40;;;15.90;56.50;;;;;;5011075;28;20439;-75
2022/04/29 09:08:17;;;;;;;20.83;9.40;;;16.10;56.00;;;;;;5013995;28;20498;-76
2022/04/29 09:10:56;;;;;;;16.60;9.30;;;16.30;54.00;;;;;;5014968;28;20428;-75
2022/04/29 09:13:29;;;;;;;14.93;9.10;;;16.50;53.70;;;;;;5013123;28;20468;-75
2022/04/29 09:16:12;;;;;;;16.67;8.90;;;16.70;51.60;;;;;;5004933;28;20420;-76
2022/04/29 09:18:43;;;;;;;14.93;8.77;;;16.70;50.50;;;;;;5015366;28;20539;-74
2022/04/29 09:21:10;;;;;;;18.10;9.20;;;17.00;49.90;;;;;;5023879;28;20870;-74
2022/04/29 09:23:39;;;;;;;15.67;8.10;;;17.30;49.40;;;;;;5018374;28;20432;-75
2022/04/29 09:26:06;;;;;;;12.20;8.17;;;17.40;48.20;;;;;;5013314;28;20563;-77
2022/04/29 09:28:36;;;;;;;12.70;8.33;;;17.70;48.70;;;;;;5012081;28;20467;-74
2022/04/29 09:31:03;;;;;;;15.40;9.30;;;18.00;48.10;;;;;;5006582;28;20416;-75
2022/04/29 09:33:29;;;;;;;13.33;8.57;;;18.00;47.80;;;;;;5018852;28;20514;-77
2022/04/29 09:35:56;;;;;;;13.47;8.53;;;18.00;48.30;;;;;;5009123;28;20423;-76
2022/04/29 09:41:07;;;;;;;14.87;8.40;;;18.30;46.50;;;;;;5014579;28;20410;-74
2022/04/29 09:43:42;;;;;;;18.67;9.23;;;18.60;46.90;;;;;;5016385;28;20434;-75
2022/04/29 09:46:22;;;;;;;12.77;8.53;;;18.60;45.40;;;;;;5020919;28;20429;-76
2022/04/29 09:49:06;;;;;;;15.77;9.33;;;18.40;46.20;;;;;;5017636;28;20453;-73
2022/04/29 09:51:51;;;;;;;14.83;8.10;;;18.10;45.70;;;;;;5018091;28;20457;-74
2022/04/29 09:54:35;;;;;;;12.33;8.50;;;18.20;46.20;;;;;;5021579;28;20471;-74
2022/04/29 09:57:03;;;;;;;13.73;8.00;;;18.50;45.40;;;;;;5007447;28;20427;-74
2022/04/29 09:59:48;;;;;;;12.30;8.73;;;18.80;44.60;;;;;;5017365;28;20549;-75
2022/04/29 10:02:16;;;;;;;11.03;8.03;;;19.10;44.20;;;;;;5014491;28;20420;-76
2022/04/29 10:04:44;;;;;;;12.07;7.33;;;19.10;43.80;;;;;;5021086;28;20425;-75
2022/04/29 10:07:12;;;;;;;10.17;6.87;;;18.90;42.70;;;;;;5014528;28;20458;-77
2022/04/29 10:09:40;;;;;;;12.57;7.60;;;18.90;43.70;;;;;;5024070;28;20455;-75
2022/04/29 10:12:10;;;;;;;11.50;7.90;;;18.80;43.80;;;;;;5021819;28;20967;-75
2022/04/29 10:14:37;;;;;;;10.63;6.90;;;18.80;43.80;;;;;;5020277;28;20471;-74
2022/04/29 10:23:01;;;;;;;15.43;6.87;;;19.30;43.10;;;;;;5006383;28;20551;-73
2022/04/29 10:25:27;;;;;;;10.70;5.80;;;19.60;41.80;;;;;;5014280;28;20856;-75
2022/04/29 10:27:54;;;;;;;8.20;5.27;;;19.70;39.60;;;;;;5017427;28;20500;-74
2022/04/29 10:30:28;;;;;;;10.20;6.77;;;19.70;39.50;;;;;;5022464;28;20413;-78
2022/04/29 10:33:17;;;;;;;9.10;5.87;;;19.60;41.20;;;;;;5013325;28;20420;-75
2022/04/29 10:35:50;;;;;;;9.53;5.50;;;19.80;41.10;;;;;;5017155;28;20431;-74
2022/04/29 10:38:34;;;;;;;7.40;5.23;;;19.70;39.90;;;;;;5025622;28;20468;-74
2022/04/29 10:41:06;;;;;;;7.70;5.30;;;19.90;37.00;;;;;;5031502;28;20444;-75
2022/04/29 10:43:35;;;;;;;5.93;5.43;;;19.80;34.90;;;;;;5023270;28;20923;-75
2022/04/29 10:46:04;;;;;;;7.60;5.03;;;19.60;35.20;;;;;;5016226;28;20892;-76
2022/04/29 10:48:35;;;;;;;6.20;4.60;;;19.90;36.00;;;;;;5014248;28;20457;-74
2022/04/29 10:51:17;;;;;;;6.70;5.40;;;20.40;35.10;;;;;;5024884;28;21000;-75
2022/04/29 10:53:45;;;;;;;6.30;5.00;;;20.70;34.30;;;;;;5021569;28;20781;-74
2022/04/29 10:56:32;;;;;;;7.23;5.30;;;20.90;33.90;;;;;;5013098;28;20422;-76
2022/04/29 10:59:14;;;;;;;8.33;5.30;;;21.10;33.70;;;;;;5013397;28;20951;-79
2022/04/29 11:01:46;;;;;;;10.73;5.27;;;21.10;33.10;;;;;;5016635;28;20419;-73
2022/04/29 11:04:15;;;;;;;6.40;5.47;;;21.10;33.10;;;;;;5013039;28;20433;-74
2022/04/29 11:06:46;;;;;;;7.70;4.90;;;21.10;33.60;;;;;;5020573;28;20790;-75
2022/04/29 11:09:35;;;;;;;10.87;5.10;;;21.30;33.50;;;;;;5013405;28;20442;-73
2022/04/29 11:12:03;;;;;;;6.80;5.60;;;21.30;33.20;;;;;;5005146;28;20433;-76
2022/04/29 11:14:29;;;;;;;9.90;4.87;;;21.50;33.20;;;;;;5013472;28;20534;-73
2022/04/29 11:16:57;;;;;;;9.93;6.10;;;21.70;33.20;;;;;;5012071;28;20445;-77
2022/04/29 11:19:26;;;;;;;10.77;5.70;;;22.00;32.40;;;;;;5017525;28;20450;-75
2022/04/29 11:24:45;;;;;;;7.63;5.10;;;22.40;30.40;;;;;;5013291;28;21188;-73
2022/04/29 11:27:11;;;;;;;7.47;5.37;;;22.20;30.70;;;;;;5017417;28;20789;-74
2022/04/29 11:29:47;;;;;;;6.80;5.07;;;21.90;31.50;;;;;;5017154;28;20924;-74
2022/04/29 11:32:13;;;;;;;7.30;5.70;;;21.40;32.50;;;;;;5017707;28;20422;-75
2022/04/29 11:34:52;;;;;;;8.53;5.03;;;21.40;33.20;;;;;;5022999;28;20486;-75
2022/04/29 11:37:29;;;;;;;7.57;5.57;;;21.30;32.70;;;;;;5012757;28;20422;-77
2022/04/29 11:39:55;;;;;;;6.17;5.27;;;21.30;33.10;;;;;;5007468;28;20818;-75
2022/04/29 11:42:22;;;;;;;13.77;5.57;;;21.30;32.80;;;;;;5008789;28;20494;-75
2022/04/29 11:44:50;;;;;;;8.87;5.90;;;21.30;32.70;;;;;;5011734;28;20786;-72
2022/04/29 11:47:23;;;;;;;10.50;5.90;;;21.10;32.40;;;;;;5017362;28;20990;-75
2022/04/29 11:49:49;;;;;;;10.77;5.10;;;21.10;33.70;;;;;;5015283;28;20448;-74
2022/04/29 11:52:26;;;;;;;8.90;5.80;;;21.40;32.70;;;;;;5014652;28;20514;-74
2022/04/29 11:54:58;;;;;;;7.37;5.40;;;21.50;32.70;;;;;;5014140;28;20736;-75
2022/04/29 11:57:26;;;;;;;6.33;5.03;;;21.50;32.40;;;;;;5016293;28;20422;-75
2022/04/29 11:59:52;;;;;;;9.20;6.10;;;21.50;32.70;;;;;;5019827;28;20438;-75
2022/04/29 12:02:20;;;;;;;8.63;6.27;;;21.60;31.90;;;;;;5017004;28;20426;-77
2022/04/29 12:04:53;;;;;;;6.43;4.87;;;21.70;32.10;;;;;;5014728;28;20434;-76
2022/04/29 12:07:20;;;;;;;6.57;4.80;;;21.70;31.70;;;;;;5012556;28;20453;-74
2022/04/29 12:09:45;;;;;;;5.63;5.10;;;21.80;32.00;;;;;;5015733;28;20503;-75
2022/04/29 12:12:31;;;;;;;7.50;5.70;;;21.60;31.90;;;;;;5018614;28;20429;-73
2022/04/29 12:15:01;;;;;;;6.13;5.00;;;21.50;32.50;;;;;;5003276;28;20214;-73
2022/04/29 12:17:38;;;;;;;9.10;4.97;;;21.50;32.10;;;;;;5017061;28;20427;-73
2022/04/29 12:20:07;;;;;;;10.43;5.90;;;21.20;33.20;;;;;;5017048;28;20438;-74
2022/04/29 12:22:36;;;;;;;9.77;5.27;;;21.10;32.40;;;;;;5016820;28;20421;-73
2022/04/29 12:25:26;;;;;;;8.97;5.27;;;21.10;33.10;;;;;;5013235;28;20426;-74
2022/04/29 12:28:13;;;;;;;6.53;5.50;;;21.10;33.90;;;;;;5015191;28;20454;-75
2022/04/29 12:36:14;;;;;;;6.30;4.87;;;21.30;30.90;;;;;;5013353;28;20492;-74
2022/04/29 12:38:43;;;;;;;6.80;5.30;;;21.10;31.70;;;;;;5019996;28;20449;-74
2022/04/29 12:41:27;;;;;;;12.63;5.67;;;21.30;32.00;;;;;;5025450;28;20428;-74
2022/04/29 12:43:53;;;;;;;6.87;5.23;;;21.50;31.70;;;;;;5015196;28;20423;-78
2022/04/29 12:46:21;;;;;;;7.60;5.63;;;21.80;31.30;;;;;;5019409;28;20805;-74
2022/04/29 12:48:49;;;;;;;8.40;5.57;;;22.20;30.30;;;;;;5013012;28;20966;-79
2022/04/29 12:51:31;;;;;;;8.20;5.13;;;22.70;30.50;;;;;;5012583;28;20431;-76
2022/04/29 12:53:58;;;;;;;6.80;5.17;;;22.90;28.80;;;;;;5009188;28;20480;-75
2022/04/29 12:56:29;;;;;;;6.83;5.90;;;22.80;29.30;;;;;;5014180;28;20957;-77
2022/04/29 12:58:55;;;;;;;6.53;5.20;;;22.90;29.40;;;;;;5003144;28;20493;-75
2022/04/29 13:01:21;;;;;;;8.77;5.30;;;22.90;29.00;;;;;;5015278;28;20430;-76
2022/04/29 13:03:50;;;;;;;7.40;5.60;;;22.90;29.00;;;;;;5019748;28;20431;-74
2022/04/29 13:06:17;;;;;;;7.13;5.70;;;23.10;29.60;;;;;;5012328;28;20187;-75
2022/04/29 13:08:45;;;;;;;8.40;5.43;;;23.50;28.30;;;;;;5010685;28;20562;-75
2022/04/29 13:11:16;;;;;;;10.53;5.53;;;23.70;28.40;;;;;;5011834;28;20434;-76
2022/04/29 13:13:42;;;;;;;7.13;6.00;;;24.00;28.30;;;;;;5013053;28;20479;-75
2022/04/29 13:16:08;;;;;;;8.57;5.70;;;24.30;27.80;;;;;;5014784;28;20488;-75